Nags Head, NC

7:41 PM EDT on September 23, 2014 (GMT -0400)
Elizabeth City Cgas-Regional | Change Station
CLOSE
Current Station
Airport
Location: Elizabeth City,
Elevation: 13 ft
Nearby Weather Stations

Elev 13 ft 36.26 °N, 76.18 °W | Updated 47 minutes ago

Overcast
Overcast
64 °F
Feels Like 64 °F
N
13
Wind Variable Wind from NNE

Today
High -- | Low -- °F
--% Chance of Precip.
Yesterday
High -- | Low -- °F
Precip. -- in
6:50 AM 6:57 PM
Waning Crescent, 0% visible
Pressure 30.27 in
Visibility 10.0 miles
Clouds Mostly Cloudy 11000 ft
Dew Point 55 °F
Humidity 73%
Rainfall 0.00 in
Snow Depth Not available.
UV 0 out of 12
Pollen 5.30 out of 12
Air Quality Not available.
Flu Activity Not available.
METAR KECG 232254Z 02011KT 10SM BKN110 18/13 A3026 RMK AO2 SLP248 T01780128

More Conditions Fewer Conditions

Pressure 30.27 in
Visibility 10.0 miles
Clouds Mostly Cloudy 11000 ft
Dew Point 55 °F
Humidity 73%
Rainfall 0.00 in
Snow Depth Not available.
UV 0 out of 12
Pollen 5.30 out of 12
Air Quality Not available.
Flu Activity Not available.
METAR KECG 232254Z 02011KT 10SM BKN110 18/13 A3026 RMK AO2 SLP248 T01780128

More Conditions Fewer Conditions

10-Day Weather Forecast

Almanac

Astronomy

Sep. 23, 2014 Rise Set
Actual Time 6:50 AM EDT 6:57 PM EDT
Civil Twilight 6:25 AM EDT 7:22 PM EDT
Nautical Twilight 5:55 AM EDT 7:52 PM EDT
Astronomical Twilight 5:25 AM EDT 8:22 PM EDT
Moon 6:13 AM EDT 6:35 PM EDT
Length of Visible Light 12h 57m
Length of Day
12h 06m
Tomorrow will be 2m 13s shorter.
Waning Crescent, 0% of the Moon is Illuminated
Today
Waning Crescent
Sep 24
New
Oct 1
First Quarter
Oct 8
Full
Oct 15
Last Quarter

Today's Extremes

State Highs State Lows

Community

WunderPhotos

Upload Photos

1,755,821 photos uploaded!

WunderBlogs® & News

Nearby

Snow Depth

Station Depth Elevation
No new snow has been reported.

Earthquake Activity

City Distance Mag. Time & Date
No recent earthquake activity has been reported nearby.
Minimum magnitude displayed is 2.5.

Coastal Water Temperatures

Place Temperature
Oregon Inlet Marina, NC 73.0 °F
Hatteras, NC 73.9 °F
Duck Pier, NC 73.0 °F
Money Point, VA 77.0 °F
Beaufort, NC 73.9 °F
Sewells Point, VA 73.9 °F
Chesapeake Bay Bridge Tunnel, VA 73.9 °F

Nearby Weather Stations